createdAt,value
2023-04-27T00:02:54.222Z,101329.46
2023-04-27T00:08:20.323Z,101327.58
2023-04-27T00:13:46.076Z,101321.46
2023-04-27T00:19:10.967Z,101313.98
2023-04-27T00:24:36.852Z,101315.23
2023-04-27T00:30:02.879Z,101316.34
2023-04-27T00:35:30.150Z,101317.23
2023-04-27T00:40:56.132Z,101318.77
2023-04-27T00:46:22.355Z,101320.63
2023-04-27T00:51:48.625Z,101325.14
2023-04-27T00:57:15.048Z,101333.96
2023-04-27T01:02:40.990Z,101336.70
2023-04-27T01:08:06.760Z,101340.20
2023-04-27T01:13:32.748Z,101339.02
2023-04-27T01:18:58.539Z,101345.62
2023-04-27T01:24:26.380Z,101344.58
2023-04-27T01:29:52.170Z,101344.04
2023-04-27T01:35:17.944Z,101349.38
2023-04-27T01:40:43.951Z,101355.27
2023-04-27T01:46:09.752Z,101361.83
2023-04-27T01:51:35.616Z,101359.20
2023-04-27T01:57:02.278Z,101363.23
2023-04-27T02:02:28.272Z,101367.77
2023-04-27T02:07:54.304Z,101369.41
2023-04-27T02:13:20.194Z,101371.08
2023-04-27T02:18:45.968Z,101378.45
2023-04-27T02:24:01.918Z,101383.96
2023-04-27T02:29:27.624Z,101385.56
2023-04-27T02:34:53.674Z,101389.42
2023-04-27T02:40:11.872Z,101390.80
2023-04-27T02:45:37.836Z,101390.99
2023-04-27T02:51:04.639Z,101396.30
2023-04-27T02:56:30.480Z,101395.48
2023-04-27T03:01:56.487Z,101403.45
2023-04-27T03:07:22.589Z,101405.34
2023-04-27T03:12:48.409Z,101405.31
2023-04-27T03:18:14.187Z,101403.51
2023-04-27T03:23:40.082Z,101408.06
2023-04-27T03:29:05.868Z,101408.59
2023-04-27T03:34:31.618Z,101413.86
2023-04-27T03:39:57.594Z,101418.91
2023-04-27T03:45:23.380Z,101423.19
2023-04-27T03:50:49.372Z,101426.61
2023-04-27T03:56:13.827Z,101431.78
2023-04-27T04:01:39.733Z,101435.79
2023-04-27T04:07:05.713Z,101434.90
2023-04-27T04:12:31.479Z,101442.84
2023-04-27T04:17:49.769Z,101445.82
2023-04-27T04:23:15.543Z,101451.92
2023-04-27T04:28:41.546Z,101459.09
2023-04-27T04:34:07.302Z,101454.13
2023-04-27T04:39:33.255Z,101459.11
2023-04-27T04:44:59.065Z,101461.64
2023-04-27T04:50:25.202Z,101466.38
2023-04-27T04:55:51.205Z,101468.98
2023-04-27T05:01:17.023Z,101475.64
2023-04-27T05:06:42.841Z,101480.71
2023-04-27T05:12:08.576Z,101478.80
2023-04-27T05:17:27.094Z,101480.29
2023-04-27T05:22:52.856Z,101483.19
2023-04-27T05:28:18.714Z,101481.77
2023-04-27T05:33:44.437Z,101485.46
2023-04-27T05:39:10.325Z,101482.27
2023-04-27T05:44:28.358Z,101484.35
2023-04-27T05:49:54.384Z,101488.48
2023-04-27T05:55:20.285Z,101486.41
2023-04-27T06:00:45.057Z,101494.91
2023-04-27T06:06:24.828Z,101493.52
2023-04-27T06:11:51.172Z,101503.05
2023-04-27T06:17:16.987Z,101507.47
2023-04-27T06:22:42.770Z,101515.19
2023-04-27T06:28:08.552Z,101513.82
2023-04-27T06:33:34.566Z,101516.71
2023-04-27T06:39:00.320Z,101513.05
2023-04-27T06:44:26.413Z,101512.05
2023-04-27T06:49:52.240Z,101511.61
2023-04-27T06:55:18.196Z,101518.95
2023-04-27T07:00:44.017Z,101521.58
2023-04-27T07:06:09.853Z,101523.73
2023-04-27T07:11:35.656Z,101526.21
2023-04-27T07:17:01.736Z,101518.58
2023-04-27T07:22:27.763Z,101522.07
2023-04-27T07:27:53.753Z,101523.68
2023-04-27T07:33:19.679Z,101521.08
2023-04-27T07:38:45.517Z,101520.49
2023-04-27T07:44:11.507Z,101524.58
2023-04-27T07:49:37.554Z,101529.80
2023-04-27T07:55:03.448Z,101532.61
2023-04-27T08:00:31.169Z,101539.37
2023-04-27T08:05:57.402Z,101543.30
2023-04-27T08:11:21.746Z,101541.86
2023-04-27T08:16:48.026Z,101535.16
2023-04-27T08:22:13.945Z,101540.98
2023-04-27T08:27:39.777Z,101542.73
2023-04-27T08:33:05.784Z,101542.05
2023-04-27T08:38:31.592Z,101545.91
2023-04-27T08:43:59.125Z,101549.39
2023-04-27T08:49:25.730Z,101550.41
2023-04-27T08:54:51.830Z,101547.59
2023-04-27T09:00:21.076Z,101542.43
2023-04-27T09:06:00.632Z,101548.77
2023-04-27T09:11:30.795Z,101542.63
2023-04-27T09:16:56.907Z,101546.89
2023-04-27T09:22:27.686Z,101545.90
2023-04-27T09:27:53.634Z,101545.44
2023-04-27T09:33:24.643Z,101545.23
2023-04-27T09:38:51.256Z,101536.95
2023-04-27T09:44:17.475Z,101530.35
2023-04-27T09:49:45.040Z,101520.54
2023-04-27T09:55:10.913Z,101526.71
2023-04-27T10:00:50.218Z,101523.98
2023-04-27T10:07:02.778Z,101519.75
2023-04-27T10:12:40.142Z,101517.58
2023-04-27T10:18:12.281Z,101511.11
2023-04-27T10:23:46.333Z,101507.87
2023-04-27T10:29:24.838Z,101509.38
2023-04-27T10:34:48.810Z,101504.63
2023-04-27T10:40:14.597Z,101505.58
2023-04-27T10:45:50.029Z,101506.26
2023-04-27T10:51:17.094Z,101501.96
2023-04-27T10:56:43.039Z,101501.48
2023-04-27T11:02:11.126Z,101505.31
2023-04-27T11:07:45.771Z,101504.13
2023-04-27T11:13:11.642Z,101504.48
2023-04-27T11:18:38.363Z,101510.89
2023-04-27T11:24:04.486Z,101517.67
2023-04-27T11:29:32.795Z,101519.16
2023-04-27T11:35:00.240Z,101519.73
2023-04-27T11:40:27.531Z,101520.67
2023-04-27T11:45:53.298Z,101521.45
2023-04-27T11:51:20.330Z,101523.97
2023-04-27T11:56:54.447Z,101530.27
2023-04-27T12:02:20.439Z,101537.84
2023-04-27T12:07:46.359Z,101543.37
2023-04-27T12:13:12.399Z,101547.86
2023-04-27T12:18:26.580Z,101551.38
2023-04-27T12:23:52.503Z,101552.89
2023-04-27T12:29:18.401Z,101558.36
2023-04-27T12:34:43.055Z,101551.63
2023-04-27T12:40:08.950Z,101541.86
2023-04-27T12:45:34.804Z,101544.05
2023-04-27T12:51:01.019Z,101548.86
2023-04-27T12:56:27.541Z,101545.75
2023-04-27T13:01:53.947Z,101543.83
2023-04-27T13:07:20.881Z,101534.46
2023-04-27T13:12:47.035Z,101544.56
2023-04-27T13:18:05.360Z,101536.99
2023-04-27T13:23:31.536Z,101540.55
2023-04-27T13:28:57.382Z,101544.03
2023-04-27T13:34:23.158Z,101535.66
2023-04-27T13:39:41.464Z,101539.89
2023-04-27T13:45:07.269Z,101538.98
2023-04-27T13:50:33.757Z,101542.27
2023-04-27T13:55:59.813Z,101546.70
2023-04-27T14:01:25.729Z,101544.20
2023-04-27T14:06:51.732Z,101544.20
2023-04-27T14:12:18.518Z,101541.86
2023-04-27T14:17:44.495Z,101546.54
2023-04-27T14:23:10.650Z,101550.41
2023-04-27T14:28:36.564Z,101548.34
2023-04-27T14:34:02.352Z,101544.17
2023-04-27T14:39:27.581Z,101548.41
2023-04-27T14:44:53.613Z,101546.09
2023-04-27T14:50:19.631Z,101538.98
2023-04-27T14:55:45.742Z,101533.23
2023-04-27T15:01:05.860Z,101533.55
2023-04-27T15:06:31.839Z,101535.11
2023-04-27T15:11:57.921Z,101537.51
2023-04-27T15:17:23.907Z,101541.50
2023-04-27T15:22:49.977Z,101533.05
2023-04-27T15:28:15.873Z,101532.77
2023-04-27T15:33:41.673Z,101531.16
2023-04-27T15:39:09.896Z,101522.62
2023-04-27T15:44:36.271Z,101521.11
2023-04-27T15:50:02.035Z,101521.05
2023-04-27T15:55:28.998Z,101508.92
2023-04-27T16:00:54.816Z,101504.54
2023-04-27T16:06:20.679Z,101497.98
2023-04-27T16:11:46.518Z,101492.22
2023-04-27T16:17:05.176Z,101485.55
2023-04-27T16:22:14.071Z,101489.28
2023-04-27T16:27:40.021Z,101482.11
2023-04-27T16:33:04.567Z,101482.28
2023-04-27T16:38:30.585Z,101475.65
2023-04-27T16:43:56.350Z,101471.94
2023-04-27T16:49:15.244Z,101474.75
2023-04-27T16:54:41.704Z,101477.02
2023-04-27T16:59:50.191Z,101475.49
2023-04-27T17:05:16.172Z,101479.23
2023-04-27T17:10:29.303Z,101481.96
2023-04-27T17:15:55.391Z,101484.38
2023-04-27T17:21:14.007Z,101483.11
2023-04-27T17:26:42.447Z,101479.25
2023-04-27T17:32:08.245Z,101482.11
2023-04-27T17:37:34.145Z,101485.38
2023-04-27T17:43:00.236Z,101488.98
2023-04-27T17:48:27.092Z,101485.08
2023-04-27T17:53:53.086Z,101487.83
2023-04-27T17:59:19.153Z,101487.05
2023-04-27T18:04:32.184Z,101492.96
2023-04-27T18:09:51.984Z,101498.50
2023-04-27T18:15:17.873Z,101501.18
2023-04-27T18:20:43.641Z,101507.58
2023-04-27T18:25:59.708Z,101512.97
2023-04-27T18:31:33.229Z,101516.05
2023-04-27T18:36:52.106Z,101524.44
2023-04-27T18:42:18.106Z,101529.79
2023-04-27T18:47:44.168Z,101538.10
2023-04-27T18:53:01.304Z,101545.70
2023-04-27T18:58:27.200Z,101552.70
2023-04-27T19:03:53.412Z,101553.52
2023-04-27T19:09:19.599Z,101547.92
2023-04-27T19:14:36.690Z,101552.31
2023-04-27T19:19:53.440Z,101551.20
2023-04-27T19:25:19.210Z,101551.88
2023-04-27T19:30:45.345Z,101552.05
2023-04-27T19:36:11.075Z,101548.02
2023-04-27T19:41:37.155Z,101548.74
2023-04-27T19:47:03.038Z,101543.88
2023-04-27T19:52:27.671Z,101553.83
2023-04-27T19:57:53.454Z,101551.23
2023-04-27T20:03:19.764Z,101555.06
2023-04-27T20:08:46.359Z,101550.06
2023-04-27T20:14:01.925Z,101548.24
2023-04-27T20:19:17.888Z,101544.35
2023-04-27T20:24:43.869Z,101545.80
2023-04-27T20:30:09.769Z,101547.85
2023-04-27T20:35:35.707Z,101548.46
2023-04-27T20:41:01.754Z,101543.20
2023-04-27T20:46:28.166Z,101539.58
2023-04-27T20:51:54.271Z,101537.87
2023-04-27T20:57:13.929Z,101536.15
2023-04-27T21:02:39.861Z,101533.40
2023-04-27T21:08:05.750Z,101528.73
2023-04-27T21:13:31.869Z,101527.36
2023-04-27T21:18:57.674Z,101526.33
2023-04-27T21:24:24.073Z,101518.58
2023-04-27T21:29:50.103Z,101516.88
2023-04-27T21:35:15.837Z,101517.52
2023-04-27T21:40:41.822Z,101516.06
2023-04-27T21:46:07.662Z,101519.19
2023-04-27T21:51:33.601Z,101518.70
2023-04-27T21:56:59.321Z,101519.35
2023-04-27T22:02:25.473Z,101522.13
2023-04-27T22:07:51.409Z,101524.77
2023-04-27T22:13:18.803Z,101526.44
2023-04-27T22:18:45.464Z,101527.14
2023-04-27T22:24:11.544Z,101528.50
2023-04-27T22:29:37.325Z,101529.22
2023-04-27T22:35:03.646Z,101524.48
2023-04-27T22:40:31.632Z,101530.91
2023-04-27T22:45:57.452Z,101533.83
2023-04-27T22:51:27.665Z,101537.35
2023-04-27T22:56:53.551Z,101529.15
2023-04-27T23:02:19.410Z,101524.27
2023-04-27T23:07:45.340Z,101518.84
2023-04-27T23:13:11.079Z,101519.82
2023-04-27T23:18:36.919Z,101516.40
2023-04-27T23:24:02.645Z,101508.95
2023-04-27T23:29:28.728Z,101503.28
2023-04-27T23:34:54.549Z,101503.07
2023-04-27T23:40:20.510Z,101503.64
2023-04-27T23:45:46.330Z,101498.70
2023-04-27T23:51:20.457Z,101486.86
2023-04-27T23:56:46.204Z,101487.04
